createdAt,value
2023-03-06T00:01:36.138Z,2.77
2023-03-06T00:04:08.349Z,2.50
2023-03-06T00:06:38.511Z,2.40
2023-03-06T00:09:09.376Z,2.40
2023-03-06T00:11:44.603Z,2.57
2023-03-06T00:14:14.798Z,2.27
2023-03-06T00:16:44.911Z,2.30
2023-03-06T00:19:14.954Z,2.40
2023-03-06T00:21:45.237Z,2.77
2023-03-06T00:24:15.234Z,2.80
2023-03-06T00:26:51.309Z,2.70
2023-03-06T00:29:27.235Z,2.90
2023-03-06T00:32:05.410Z,3.23
2023-03-06T00:34:37.196Z,3.00
2023-03-06T00:37:07.416Z,2.87
2023-03-06T00:39:37.656Z,3.27
2023-03-06T00:42:10.598Z,2.80
2023-03-06T00:44:41.764Z,2.80
2023-03-06T00:47:12.397Z,3.40
2023-03-06T00:49:45.618Z,2.50
2023-03-06T00:52:23.043Z,3.10
2023-03-06T00:55:00.652Z,3.40
2023-03-06T00:57:37.036Z,3.27
2023-03-06T01:00:17.791Z,2.90
2023-03-06T01:02:59.142Z,2.63
2023-03-06T01:06:09.701Z,2.40
2023-03-06T01:09:23.031Z,2.93
2023-03-06T01:12:23.293Z,3.33
2023-03-06T01:15:28.442Z,2.43
2023-03-06T01:18:54.088Z,2.90
2023-03-06T01:21:29.112Z,3.13
2023-03-06T01:23:59.984Z,3.10
2023-03-06T01:26:52.979Z,2.50
2023-03-06T01:29:59.082Z,2.80
2023-03-06T01:33:32.894Z,3.63
2023-03-06T01:36:13.565Z,3.50
2023-03-06T01:38:43.465Z,3.00
2023-03-06T01:41:16.019Z,3.30
2023-03-06T01:43:48.573Z,2.87
2023-03-06T01:46:38.141Z,3.30
2023-03-06T01:49:18.106Z,3.13
2023-03-06T01:51:53.205Z,2.77
2023-03-06T01:54:28.348Z,2.63
2023-03-06T01:57:04.027Z,3.10
2023-03-06T01:59:36.612Z,3.30
2023-03-06T02:02:09.308Z,3.23
2023-03-06T02:04:44.354Z,3.37
2023-03-06T02:07:14.848Z,3.07
2023-03-06T02:09:44.888Z,3.30
2023-03-06T02:12:17.285Z,3.07
2023-03-06T02:14:48.251Z,3.10
2023-03-06T02:17:21.077Z,3.63
2023-03-06T02:20:01.401Z,3.50
2023-03-06T02:22:38.783Z,3.10
2023-03-06T02:25:17.155Z,3.73
2023-03-06T02:27:50.964Z,2.90
2023-03-06T02:30:22.014Z,2.70
2023-03-06T02:32:52.044Z,3.80
2023-03-06T02:35:23.202Z,3.00
2023-03-06T02:37:53.280Z,3.37
2023-03-06T02:40:24.922Z,3.73
2023-03-06T02:43:00.584Z,3.57
2023-03-06T02:45:38.410Z,2.60
2023-03-06T02:48:09.494Z,3.73
2023-03-06T02:50:39.295Z,4.03
2023-03-06T02:53:10.188Z,2.87
2023-03-06T02:55:40.768Z,3.10
2023-03-06T02:58:13.557Z,3.23
2023-03-06T03:00:43.600Z,3.40
2023-03-06T03:03:13.490Z,3.83
2023-03-06T03:05:43.375Z,3.03
2023-03-06T03:08:19.860Z,3.50
2023-03-06T03:10:51.171Z,3.37
2023-03-06T03:13:23.836Z,4.03
2023-03-06T03:16:01.507Z,2.90
2023-03-06T03:18:31.697Z,3.80
2023-03-06T03:21:01.852Z,3.87
2023-03-06T03:23:31.683Z,4.10
2023-03-06T03:26:09.145Z,4.37
2023-03-06T03:28:44.037Z,4.10
2023-03-06T03:31:16.768Z,4.73
2023-03-06T03:33:47.338Z,3.80
2023-03-06T03:36:17.425Z,4.20
2023-03-06T03:38:49.859Z,4.07
2023-03-06T03:41:20.743Z,4.80
2023-03-06T03:44:02.725Z,4.20
2023-03-06T03:46:42.822Z,4.50
2023-03-06T03:49:21.361Z,5.17
2023-03-06T03:51:51.777Z,4.73
2023-03-06T03:54:23.436Z,5.07
2023-03-06T03:56:55.674Z,4.80
2023-03-06T03:59:35.037Z,4.70
2023-03-06T04:02:30.596Z,4.67
2023-03-06T04:05:08.790Z,5.33
2023-03-06T04:07:38.673Z,5.20
2023-03-06T04:10:10.084Z,6.07
2023-03-06T04:12:40.367Z,4.70
2023-03-06T04:15:13.996Z,4.77
2023-03-06T04:17:44.488Z,4.87
2023-03-06T04:20:18.395Z,5.07
2023-03-06T04:22:49.754Z,5.57
2023-03-06T04:25:20.487Z,5.20
2023-03-06T04:27:50.295Z,5.03
2023-03-06T04:30:24.782Z,5.20
2023-03-06T04:32:54.784Z,5.50
2023-03-06T04:35:24.527Z,5.40
2023-03-06T04:38:01.190Z,6.03
2023-03-06T04:40:34.711Z,6.03
2023-03-06T04:43:04.954Z,6.07
2023-03-06T04:45:37.656Z,6.00
2023-03-06T04:48:07.890Z,6.20
2023-03-06T04:50:38.244Z,5.60
2023-03-06T04:53:08.729Z,6.03
2023-03-06T04:55:38.421Z,6.00
2023-03-06T04:58:08.192Z,6.60
2023-03-06T05:00:40.490Z,6.40
2023-03-06T05:03:11.278Z,7.00
2023-03-06T05:05:40.919Z,6.23
2023-03-06T05:08:11.085Z,7.50
2023-03-06T05:10:40.692Z,6.90
2023-03-06T05:13:10.348Z,6.07
2023-03-06T05:15:43.199Z,7.00
2023-03-06T05:18:12.864Z,7.53
2023-03-06T05:20:42.528Z,7.53
2023-03-06T05:23:12.178Z,8.20
2023-03-06T05:25:42.745Z,7.90
2023-03-06T05:28:12.391Z,7.57
2023-03-06T05:30:44.582Z,7.97
2023-03-06T05:33:14.221Z,9.07
2023-03-06T05:35:47.995Z,9.07
2023-03-06T05:38:18.175Z,8.70
2023-03-06T05:40:48.409Z,8.77
2023-03-06T05:43:18.027Z,8.40
2023-03-06T05:45:50.591Z,9.73
2023-03-06T05:48:20.316Z,9.23
2023-03-06T05:50:57.860Z,7.93
2023-03-06T05:53:28.103Z,9.33
2023-03-06T05:56:02.182Z,9.50
2023-03-06T05:58:32.999Z,9.13
2023-03-06T06:01:11.676Z,9.80
2023-03-06T06:03:41.394Z,10.23
2023-03-06T06:06:13.211Z,10.27
2023-03-06T06:08:43.777Z,10.77
2023-03-06T06:11:14.684Z,11.37
2023-03-06T06:13:44.512Z,11.13
2023-03-06T06:16:19.641Z,9.73
2023-03-06T06:18:49.489Z,10.90
2023-03-06T06:21:19.095Z,12.03
2023-03-06T06:23:48.684Z,12.17
2023-03-06T06:26:18.432Z,13.10
2023-03-06T06:28:48.059Z,11.40
2023-03-06T06:31:20.334Z,13.00
2023-03-06T06:33:49.954Z,13.00
2023-03-06T06:36:20.146Z,12.73
2023-03-06T06:38:50.611Z,12.10
2023-03-06T06:41:42.623Z,12.13
2023-03-06T06:44:12.589Z,11.80
2023-03-06T06:49:35.428Z,12.40
2023-03-06T06:52:05.230Z,10.57
2023-03-06T06:54:35.209Z,13.57
2023-03-06T06:57:04.945Z,13.80
2023-03-06T06:59:34.598Z,13.67
2023-03-06T07:02:07.260Z,13.03
2023-03-06T07:04:36.908Z,12.63
2023-03-06T07:07:06.531Z,11.77
2023-03-06T07:09:36.164Z,12.37
2023-03-06T07:12:05.802Z,12.70
2023-03-06T07:14:35.443Z,12.10
2023-03-06T07:17:07.723Z,12.90
2023-03-06T07:19:38.606Z,12.07
2023-03-06T07:22:08.510Z,13.43
2023-03-06T07:24:38.313Z,12.17
2023-03-06T07:27:08.028Z,12.83
2023-03-06T07:29:37.888Z,12.50
2023-03-06T07:32:10.173Z,12.87
2023-03-06T07:34:39.968Z,11.90
2023-03-06T07:37:09.592Z,11.77
2023-03-06T07:39:39.443Z,12.80
2023-03-06T07:42:09.521Z,12.23
2023-03-06T07:44:44.948Z,12.73
2023-03-06T07:47:17.531Z,11.77
2023-03-06T07:49:47.184Z,13.30
2023-03-06T07:52:17.111Z,13.37
2023-03-06T07:54:46.730Z,14.23
2023-03-06T07:57:16.405Z,13.60
2023-03-06T07:59:46.020Z,13.73
2023-03-06T08:02:18.188Z,12.77
2023-03-06T08:04:47.797Z,12.47
2023-03-06T08:07:17.380Z,14.43
2023-03-06T08:09:46.997Z,13.00
2023-03-06T08:12:16.764Z,14.27
2023-03-06T08:14:46.381Z,14.70
2023-03-06T08:17:18.628Z,12.37
2023-03-06T08:19:48.283Z,14.50
2023-03-06T08:22:17.893Z,14.80
2023-03-06T08:24:47.483Z,14.93
2023-03-06T08:27:17.062Z,15.80
2023-03-06T08:29:46.668Z,14.30
2023-03-06T08:32:18.938Z,14.87
2023-03-06T08:34:48.580Z,16.17
2023-03-06T08:37:18.264Z,14.87
2023-03-06T08:39:48.346Z,13.90
2023-03-06T08:42:18.467Z,15.43
2023-03-06T08:44:48.143Z,15.63
2023-03-06T08:47:21.439Z,15.80
2023-03-06T08:49:51.052Z,15.60
2023-03-06T08:52:20.630Z,15.43
2023-03-06T08:54:50.231Z,12.63
2023-03-06T08:57:19.828Z,10.03
2023-03-06T08:59:49.414Z,9.77
2023-03-06T09:02:21.612Z,8.23
2023-03-06T09:04:51.254Z,8.13
2023-03-06T09:07:20.839Z,8.03
2023-03-06T09:09:50.463Z,7.20
2023-03-06T09:12:20.099Z,7.77
2023-03-06T09:14:49.730Z,8.07
2023-03-06T09:17:21.962Z,7.10
2023-03-06T09:19:52.492Z,6.60
2023-03-06T09:22:22.106Z,6.17
2023-03-06T09:24:52.172Z,6.70
2023-03-06T09:27:22.850Z,6.10
2023-03-06T09:29:52.520Z,5.00
2023-03-06T09:32:25.746Z,5.10
2023-03-06T09:34:55.424Z,4.60
2023-03-06T09:37:25.177Z,4.57
2023-03-06T09:39:54.819Z,4.00
2023-03-06T09:42:26.001Z,4.23
2023-03-06T09:44:58.802Z,4.50
2023-03-06T09:47:43.621Z,3.70
2023-03-06T09:50:24.728Z,4.03
2023-03-06T09:53:06.976Z,4.30
2023-03-06T09:55:40.793Z,3.60
2023-03-06T09:58:16.926Z,2.87
2023-03-06T10:00:52.896Z,2.70
2023-03-06T10:03:29.847Z,2.90
2023-03-06T10:06:04.622Z,1.93
2023-03-06T10:08:46.346Z,2.30
2023-03-06T10:11:21.181Z,2.60
2023-03-06T10:13:57.525Z,2.90
2023-03-06T10:16:30.476Z,3.90
2023-03-06T10:19:05.223Z,2.70
2023-03-06T10:21:48.513Z,3.17
2023-03-06T10:24:27.786Z,2.73
2023-03-06T10:27:06.028Z,3.00
2023-03-06T10:30:01.289Z,2.60
2023-03-06T10:32:48.251Z,1.83
2023-03-06T10:35:25.699Z,1.40
2023-03-06T10:38:02.866Z,1.80
2023-03-06T10:40:43.554Z,1.50
2023-03-06T10:43:13.916Z,1.60
2023-03-06T10:45:55.026Z,1.60
2023-03-06T10:48:27.420Z,2.20
2023-03-06T10:51:18.581Z,2.20
2023-03-06T10:53:54.592Z,2.03
2023-03-06T10:56:32.408Z,1.93
2023-03-06T10:59:10.498Z,2.10
2023-03-06T11:01:40.568Z,2.33
2023-03-06T11:04:19.294Z,2.50
2023-03-06T11:06:51.706Z,2.30
2023-03-06T11:09:25.434Z,2.50
2023-03-06T11:11:55.642Z,2.20
2023-03-06T11:14:27.594Z,2.37
2023-03-06T11:16:57.622Z,2.30
2023-03-06T11:19:33.093Z,2.80
2023-03-06T11:22:09.877Z,2.13
2023-03-06T11:24:44.402Z,2.03
2023-03-06T11:27:25.145Z,2.00
2023-03-06T11:29:57.956Z,2.40
2023-03-06T11:32:32.385Z,2.37
2023-03-06T11:35:07.353Z,2.47
2023-03-06T11:37:48.740Z,1.60
2023-03-06T11:40:25.679Z,2.33
2023-03-06T11:43:02.878Z,2.00
2023-03-06T11:45:38.976Z,1.27
2023-03-06T11:48:24.675Z,1.50
2023-03-06T11:50:56.252Z,1.10
2023-03-06T11:53:35.204Z,1.00
2023-03-06T11:56:14.673Z,1.17
2023-03-06T11:59:03.635Z,0.70
2023-03-06T12:01:38.338Z,0.80
2023-03-06T12:04:36.633Z,1.07
2023-03-06T12:07:20.398Z,1.00
2023-03-06T12:09:58.498Z,1.10
2023-03-06T12:12:53.068Z,1.00
2023-03-06T12:15:30.407Z,0.80
2023-03-06T12:18:22.037Z,0.90
2023-03-06T12:21:01.348Z,0.60
2023-03-06T12:23:50.671Z,1.80
2023-03-06T12:26:51.333Z,1.10
2023-03-06T12:29:50.296Z,1.10
2023-03-06T12:32:35.305Z,0.97
2023-03-06T12:35:17.419Z,1.50
2023-03-06T12:37:59.438Z,1.23
2023-03-06T12:40:59.758Z,1.20
2023-03-06T12:43:57.171Z,1.60
2023-03-06T12:46:28.556Z,1.43
2023-03-06T12:49:05.637Z,1.67
2023-03-06T12:51:36.178Z,1.87
2023-03-06T12:54:06.167Z,1.57
2023-03-06T12:56:37.193Z,1.53
2023-03-06T12:59:09.615Z,1.20
2023-03-06T13:09:26.575Z,1.03
2023-03-06T13:16:24.803Z,0.97
2023-03-06T13:22:52.472Z,1.40
2023-03-06T13:26:00.314Z,1.40
2023-03-06T13:29:05.001Z,0.90
2023-03-06T14:01:09.804Z,1.10
2023-03-06T14:04:34.063Z,0.63
2023-03-06T14:07:42.574Z,1.10
2023-03-06T14:10:36.368Z,1.50
2023-03-06T14:17:36.978Z,1.40
2023-03-06T14:32:17.032Z,1.97
2023-03-06T14:39:51.376Z,1.80
2023-03-06T14:43:39.873Z,1.80
2023-03-06T14:46:53.088Z,1.40
2023-03-06T14:49:59.248Z,1.90
2023-03-06T14:53:15.857Z,1.30
2023-03-06T14:56:55.213Z,1.50
2023-03-06T15:08:39.228Z,1.90
2023-03-06T15:19:16.392Z,1.90
2023-03-06T15:22:23.640Z,1.83
2023-03-06T15:25:35.830Z,1.90
2023-03-06T15:28:44.688Z,1.87
2023-03-06T15:31:58.858Z,1.67
2023-03-06T16:43:43.396Z,2.30
2023-03-06T16:46:32.852Z,2.40
2023-03-06T16:49:16.890Z,3.03
2023-03-06T16:51:56.100Z,2.80
2023-03-06T16:54:31.929Z,2.63
2023-03-06T16:57:08.588Z,2.73
2023-03-06T16:59:44.084Z,2.43
2023-03-06T17:02:17.086Z,3.00
2023-03-06T17:04:53.031Z,2.80
2023-03-06T17:07:25.448Z,3.50
2023-03-06T17:10:07.292Z,3.93
2023-03-06T17:12:41.468Z,3.60
2023-03-06T17:15:40.666Z,4.17
2023-03-06T17:18:10.960Z,4.50
2023-03-06T17:20:46.239Z,3.07
2023-03-06T17:23:25.410Z,3.00
2023-03-06T17:26:13.208Z,2.60
2023-03-06T17:28:45.927Z,3.10
2023-03-06T17:31:32.136Z,2.97
2023-03-06T17:34:04.766Z,3.70
2023-03-06T17:36:37.520Z,3.37
2023-03-06T17:39:11.042Z,3.90
2023-03-06T17:41:41.693Z,4.10
2023-03-06T17:44:17.867Z,3.53
2023-03-06T17:46:51.033Z,3.50
2023-03-06T17:49:23.320Z,3.70
2023-03-06T17:51:53.137Z,3.17
2023-03-06T17:54:23.055Z,3.67
2023-03-06T17:56:52.911Z,3.23
2023-03-06T17:59:22.569Z,3.27
2023-03-06T18:01:54.840Z,3.10
2023-03-06T18:04:24.615Z,3.30
2023-03-06T18:06:57.489Z,3.43
2023-03-06T18:09:27.289Z,3.57
2023-03-06T18:11:57.046Z,3.20
2023-03-06T18:14:26.958Z,4.20
2023-03-06T18:16:59.231Z,4.10
2023-03-06T18:19:29.001Z,4.00
2023-03-06T18:22:00.546Z,3.30
2023-03-06T18:24:30.481Z,3.90
2023-03-06T18:27:00.135Z,3.70
2023-03-06T18:29:29.872Z,4.43
2023-03-06T18:32:03.072Z,3.30
2023-03-06T18:34:32.831Z,4.17
2023-03-06T18:37:02.476Z,4.27
2023-03-06T18:39:32.302Z,4.77
2023-03-06T18:42:01.994Z,3.90
2023-03-06T18:44:32.044Z,4.47
2023-03-06T18:47:04.443Z,4.20
2023-03-06T18:49:34.216Z,4.60
2023-03-06T18:52:03.849Z,3.97
2023-03-06T18:54:33.832Z,4.13
2023-03-06T18:57:03.587Z,4.67
2023-03-06T18:59:33.412Z,4.53
2023-03-06T19:02:05.948Z,4.80
2023-03-06T19:04:35.623Z,3.87
2023-03-06T19:07:05.272Z,4.27
2023-03-06T19:09:34.918Z,4.07
2023-03-06T19:12:05.297Z,4.40
2023-03-06T19:14:36.361Z,3.90
2023-03-06T19:17:08.658Z,4.40
2023-03-06T19:19:38.358Z,5.73
2023-03-06T19:22:08.047Z,4.57
2023-03-06T19:24:38.684Z,4.60
2023-03-06T19:27:08.312Z,5.07
2023-03-06T19:29:38.623Z,4.67
2023-03-06T19:32:11.148Z,4.70
2023-03-06T19:34:40.837Z,4.10
2023-03-06T19:37:10.778Z,4.50
2023-03-06T19:39:40.364Z,4.97
2023-03-06T19:42:11.725Z,5.43
2023-03-06T19:44:43.070Z,5.20
2023-03-06T19:47:15.463Z,4.83
2023-03-06T19:49:45.072Z,6.07
2023-03-06T19:52:14.690Z,6.57
2023-03-06T19:54:46.846Z,6.10
2023-03-06T19:57:16.847Z,5.83
2023-03-06T19:59:46.596Z,6.17
2023-03-06T20:02:19.595Z,6.20
2023-03-06T20:04:49.542Z,6.80
2023-03-06T20:07:19.182Z,6.83
2023-03-06T20:09:48.916Z,6.67
2023-03-06T20:12:18.711Z,6.87
2023-03-06T20:14:48.754Z,6.47
2023-03-06T20:17:20.960Z,7.03
2023-03-06T20:19:50.644Z,6.70
2023-03-06T20:22:21.231Z,6.60
2023-03-06T20:24:50.918Z,7.10
2023-03-06T20:27:20.607Z,7.17
2023-03-06T20:29:50.225Z,6.97
2023-03-06T20:32:22.532Z,7.30
2023-03-06T20:34:52.195Z,7.90
2023-03-06T20:37:21.868Z,8.73
2023-03-06T20:39:52.707Z,10.27
2023-03-06T20:42:22.356Z,12.17
2023-03-06T20:44:51.967Z,12.00
2023-03-06T20:47:24.242Z,15.20
2023-03-06T20:49:53.882Z,15.70
2023-03-06T20:52:23.525Z,18.00
2023-03-06T20:54:53.153Z,18.07
2023-03-06T20:57:22.767Z,17.50
2023-03-06T20:59:52.396Z,20.27
2023-03-06T21:02:24.657Z,19.50
2023-03-06T21:04:54.412Z,20.80
2023-03-06T21:07:24.077Z,21.13
2023-03-06T21:09:53.767Z,21.47
2023-03-06T21:12:23.459Z,21.07
2023-03-06T21:14:53.044Z,21.67
2023-03-06T21:17:25.587Z,24.20
2023-03-06T21:19:55.406Z,23.67
2023-03-06T21:22:25.059Z,24.07
2023-03-06T21:24:54.670Z,26.43
2023-03-06T21:27:24.270Z,27.43
2023-03-06T21:29:53.951Z,27.27
2023-03-06T21:32:26.330Z,26.70
2023-03-06T21:34:56.007Z,28.07
2023-03-06T21:37:25.690Z,27.50
2023-03-06T21:39:55.499Z,26.83
2023-03-06T21:42:25.096Z,27.43
2023-03-06T21:44:54.734Z,28.07
2023-03-06T21:47:27.018Z,27.67
2023-03-06T21:49:56.616Z,27.30
2023-03-06T21:52:26.596Z,27.80
2023-03-06T21:54:56.383Z,27.40
2023-03-06T21:57:26.076Z,27.20
2023-03-06T21:59:55.697Z,28.40
2023-03-06T22:02:27.988Z,29.13
2023-03-06T22:04:57.817Z,28.00
2023-03-06T22:07:28.435Z,27.77
2023-03-06T22:09:58.268Z,28.93
2023-03-06T22:12:27.983Z,31.20
2023-03-06T22:14:57.630Z,31.90
2023-03-06T22:17:29.913Z,27.77
2023-03-06T22:19:59.677Z,29.87
2023-03-06T22:22:29.540Z,29.30
2023-03-06T22:24:59.258Z,29.90
2023-03-06T22:27:31.139Z,32.57
2023-03-06T22:30:00.749Z,30.67
2023-03-06T22:32:33.365Z,31.20
2023-03-06T22:35:03.195Z,29.10
2023-03-06T22:37:33.990Z,31.00
2023-03-06T22:40:03.622Z,30.60
2023-03-06T22:42:33.262Z,31.40
2023-03-06T22:45:02.956Z,30.10
2023-03-06T22:47:38.406Z,31.30
2023-03-06T22:50:08.937Z,30.90
2023-03-06T22:52:38.587Z,29.50
2023-03-06T22:55:09.425Z,32.20
2023-03-06T22:57:39.047Z,28.07
2023-03-06T23:00:11.110Z,30.33
2023-03-06T23:02:43.968Z,28.17
2023-03-06T23:05:13.960Z,29.17
2023-03-06T23:07:43.569Z,30.97
2023-03-06T23:10:14.119Z,27.50
2023-03-06T23:13:03.280Z,27.60
2023-03-06T23:15:51.863Z,26.93
2023-03-06T23:18:44.088Z,28.00
2023-03-06T23:21:32.395Z,25.13
2023-03-06T23:24:21.050Z,26.13
2023-03-06T23:26:50.687Z,27.00
2023-03-06T23:29:20.309Z,25.80
2023-03-06T23:31:49.878Z,25.50
2023-03-06T23:34:22.078Z,26.00
2023-03-06T23:36:51.768Z,24.90
2023-03-06T23:39:22.615Z,24.93
2023-03-06T23:41:52.263Z,22.77
2023-03-06T23:44:21.868Z,22.10
2023-03-06T23:46:51.463Z,22.47
2023-03-06T23:49:23.818Z,23.53
2023-03-06T23:51:53.506Z,23.73
2023-03-06T23:54:23.131Z,22.87
2023-03-06T23:56:52.952Z,22.80
2023-03-06T23:59:22.833Z,23.40
